Time;durP1;ratioP1;P1;durP2;ratioP2;P2;SDS_P1;SDS_P2;PMS_P1;PMS_P2;Temp;Humidity;BMP_temperature;BMP_pressure;BME280_temperature;BME280_humidity;BME280_pressure;Samples;Min_cycle;Max_cycle;Signal;HPM_P1;HPM_P2
2021/12/30 00:01:57;;;;;;;43.78;6.30;;;9.60;99.90;;;;;;5016855;28;20049;-82
2021/12/30 00:04:24;;;;;;;48.15;6.35;;;9.60;99.90;;;;;;5016752;28;20056;-81
2021/12/30 00:06:50;;;;;;;41.85;6.65;;;9.70;99.90;;;;;;5033038;28;20103;-82
2021/12/30 00:09:18;;;;;;;51.90;7.20;;;9.60;99.90;;;;;;5033003;28;20056;-82
2021/12/30 00:11:44;;;;;;;48.55;7.13;;;9.60;99.90;;;;;;5032606;28;20111;-82
2021/12/30 00:14:10;;;;;;;56.03;6.65;;;9.50;99.90;;;;;;5032945;28;20076;-81
2021/12/30 00:16:39;;;;;;;65.00;8.70;;;9.50;99.90;;;;;;5032796;28;20108;-82
2021/12/30 00:19:05;;;;;;;55.65;9.63;;;9.50;99.90;;;;;;5033051;28;20087;-82
2021/12/30 00:21:31;;;;;;;62.38;8.85;;;9.50;99.90;;;;;;5032921;28;20427;-82
2021/12/30 00:23:57;;;;;;;75.47;9.40;;;9.50;99.90;;;;;;5032800;28;20045;-82
2021/12/30 00:26:22;;;;;;;63.63;9.27;;;9.40;99.90;;;;;;5032780;28;20048;-82
2021/12/30 00:28:48;;;;;;;63.17;8.18;;;9.40;99.90;;;;;;5016078;28;20132;-82
2021/12/30 00:31:15;;;;;;;70.05;8.73;;;9.40;99.90;;;;;;5032714;28;20056;-83
2021/12/30 00:33:42;;;;;;;79.30;9.48;;;9.50;99.90;;;;;;5032700;28;20662;-82
2021/12/30 00:36:09;;;;;;;74.68;8.52;;;9.50;99.90;;;;;;5032590;28;20045;-81
2021/12/30 00:38:40;;;;;;;92.10;8.48;;;9.50;99.90;;;;;;5032609;28;20128;-82
2021/12/30 00:41:07;;;;;;;73.35;8.48;;;9.40;99.90;;;;;;5032318;28;20048;-82
2021/12/30 00:43:33;;;;;;;78.93;8.43;;;9.50;99.90;;;;;;5032637;28;20093;-82
2021/12/30 00:45:59;;;;;;;79.63;9.10;;;9.50;99.90;;;;;;5016193;28;20045;-82
2021/12/30 00:48:25;;;;;;;66.70;9.10;;;9.40;99.90;;;;;;5032561;28;20064;-82
2021/12/30 00:50:52;;;;;;;51.53;7.07;;;9.50;99.90;;;;;;5032579;28;20049;-82
2021/12/30 00:53:18;;;;;;;78.90;8.85;;;9.40;99.90;;;;;;5032622;28;20091;-81
2021/12/30 00:55:44;;;;;;;78.95;8.55;;;9.50;99.90;;;;;;5015464;28;20107;-81
2021/12/30 00:58:13;;;;;;;74.82;9.43;;;9.50;99.90;;;;;;5032159;28;20480;-82
2021/12/30 01:00:41;;;;;;;75.53;8.85;;;9.60;99.90;;;;;;5032455;28;20057;-82
2021/12/30 01:03:07;;;;;;;69.32;8.27;;;9.60;99.90;;;;;;5032616;28;20401;-82
2021/12/30 01:05:33;;;;;;;94.10;9.07;;;9.50;99.90;;;;;;5032470;28;20041;-82
2021/12/30 01:07:59;;;;;;;95.30;8.40;;;9.50;99.90;;;;;;5032368;28;20550;-82
2021/12/30 01:10:26;;;;;;;94.65;9.57;;;9.50;99.90;;;;;;4999842;28;20045;-81
2021/12/30 01:12:54;;;;;;;56.95;7.72;;;9.50;99.90;;;;;;5032408;28;20060;-82
2021/12/30 01:15:33;;;;;;;79.63;9.02;;;9.40;99.90;;;;;;5032540;28;20041;-82
2021/12/30 01:18:21;;;;;;;90.38;9.20;;;9.40;99.90;;;;;;5032193;28;20385;-81
2021/12/30 01:20:45;;;;;;;98.07;9.20;;;9.30;99.90;;;;;;5032537;28;20050;-81
2021/12/30 01:23:10;;;;;;;104.70;10.85;;;9.30;99.90;;;;;;5032243;28;20447;-82
2021/12/30 01:25:36;;;;;;;100.93;10.90;;;9.30;99.90;;;;;;5032186;28;20053;-81
2021/12/30 01:28:02;;;;;;;61.47;8.13;;;9.30;99.90;;;;;;5016214;28;20049;-81
2021/12/30 01:30:27;;;;;;;82.93;9.75;;;9.30;99.90;;;;;;5032155;28;20041;-82
2021/12/30 01:32:53;;;;;;;90.97;8.80;;;9.40;99.90;;;;;;5015855;28;20089;-82
2021/12/30 01:35:23;;;;;;;92.22;10.23;;;9.30;99.90;;;;;;5032200;28;20060;-82
2021/12/30 01:37:50;;;;;;;76.10;8.25;;;9.30;99.90;;;;;;5031959;28;20045;-82
2021/12/30 01:40:17;;;;;;;73.30;8.32;;;9.20;99.90;;;;;;5015477;28;20064;-82
2021/12/30 01:42:43;;;;;;;86.40;9.32;;;9.10;99.90;;;;;;5032111;28;20045;-82
2021/12/30 01:45:10;;;;;;;93.93;9.88;;;9.20;99.90;;;;;;5015335;28;20497;-82
2021/12/30 01:47:42;;;;;;;78.93;8.48;;;9.20;99.90;;;;;;5017609;28;20053;-82
2021/12/30 01:50:08;;;;;;;83.68;8.48;;;9.20;99.90;;;;;;5035951;28;20052;-82
2021/12/30 01:52:34;;;;;;;72.53;9.63;;;9.20;99.90;;;;;;5035386;28;20049;-82
2021/12/30 01:55:01;;;;;;;87.85;9.23;;;9.30;99.90;;;;;;5034973;28;20500;-82
2021/12/30 01:57:27;;;;;;;86.55;9.55;;;9.20;99.90;;;;;;5035302;28;20072;-82
2021/12/30 01:59:53;;;;;;;75.97;9.93;;;9.20;99.90;;;;;;5035511;28;20480;-81
2021/12/30 02:02:18;;;;;;;81.85;8.95;;;9.20;99.90;;;;;;5035133;28;20088;-82
2021/12/30 02:04:44;;;;;;;85.57;9.18;;;9.20;99.90;;;;;;5035276;28;20132;-81
2021/12/30 02:07:10;;;;;;;67.22;8.18;;;9.20;99.90;;;;;;5035260;28;20055;-81
2021/12/30 02:09:36;;;;;;;80.65;10.23;;;9.20;99.90;;;;;;5034922;28;20081;-82
2021/12/30 02:12:04;;;;;;;76.30;9.38;;;9.20;99.90;;;;;;5035139;28;20041;-81
2021/12/30 02:14:36;;;;;;;67.93;8.23;;;9.20;99.90;;;;;;5035191;28;20118;-82
2021/12/30 02:17:06;;;;;;;64.50;8.48;;;9.10;99.90;;;;;;5018728;28;20477;-82
2021/12/30 02:19:32;;;;;;;77.60;9.30;;;9.20;99.90;;;;;;5035160;28;20136;-81
2021/12/30 02:21:58;;;;;;;91.93;9.88;;;9.20;99.90;;;;;;5018585;28;20107;-82
2021/12/30 02:24:24;;;;;;;67.07;9.93;;;9.20;99.90;;;;;;5019078;28;20500;-81
2021/12/30 02:26:51;;;;;;;72.25;9.05;;;9.10;99.90;;;;;;5034419;28;20046;-81
2021/12/30 02:29:17;;;;;;;75.50;9.52;;;9.10;99.90;;;;;;5035177;28;20045;-81
2021/12/30 02:31:43;;;;;;;76.97;8.05;;;9.10;99.90;;;;;;5035082;28;20045;-82
2021/12/30 02:34:09;;;;;;;82.57;9.07;;;9.10;99.90;;;;;;5034722;28;20103;-82
2021/12/30 02:36:37;;;;;;;83.38;11.02;;;9.00;99.90;;;;;;5034902;28;20124;-81
2021/12/30 02:39:06;;;;;;;71.63;7.60;;;9.00;99.90;;;;;;5034590;28;20497;-81
2021/12/30 02:41:34;;;;;;;84.18;9.65;;;8.90;99.90;;;;;;5034426;28;20072;-82
2021/12/30 02:44:01;;;;;;;97.00;9.77;;;9.00;99.90;;;;;;5018401;28;20069;-82
2021/12/30 02:46:30;;;;;;;91.32;10.25;;;9.00;99.90;;;;;;5034559;28;20064;-82
2021/12/30 02:48:58;;;;;;;92.15;9.45;;;9.00;99.90;;;;;;5034220;28;20053;-82
2021/12/30 02:51:24;;;;;;;84.45;9.07;;;9.00;99.90;;;;;;5034468;28;20420;-82
2021/12/30 02:53:50;;;;;;;76.60;9.13;;;9.00;99.90;;;;;;5034283;28;20045;-81
2021/12/30 02:56:16;;;;;;;97.63;10.55;;;9.00;99.90;;;;;;5034957;28;20045;-81
2021/12/30 02:58:42;;;;;;;86.07;10.23;;;9.00;99.90;;;;;;5050508;28;20050;-81
2021/12/30 03:01:12;;;;;;;97.70;11.00;;;9.00;99.90;;;;;;5034217;28;20393;-82
2021/12/30 03:03:39;;;;;;;87.85;10.13;;;9.00;99.90;;;;;;5035128;28;20191;-81
2021/12/30 03:06:07;;;;;;;90.93;11.10;;;9.00;99.90;;;;;;5034286;28;20057;-81
2021/12/30 03:08:33;;;;;;;108.55;11.93;;;9.10;99.90;;;;;;5034735;28;20479;-81
2021/12/30 03:11:00;;;;;;;92.65;12.77;;;9.10;99.90;;;;;;5033423;28;20076;-81
2021/12/30 03:13:31;;;;;;;84.63;12.70;;;9.10;99.90;;;;;;5034035;28;20052;-82
2021/12/30 03:16:03;;;;;;;91.63;12.88;;;9.00;99.90;;;;;;5034301;28;20050;-82
2021/12/30 03:18:31;;;;;;;91.15;12.98;;;9.20;99.90;;;;;;5034138;28;20495;-82
2021/12/30 03:20:59;;;;;;;111.65;15.40;;;9.20;99.90;;;;;;5017426;28;20099;-82
2021/12/30 03:23:25;;;;;;;86.63;13.52;;;9.40;99.90;;;;;;5017037;28;20049;-81
2021/12/30 03:25:51;;;;;;;111.13;13.77;;;9.30;99.90;;;;;;5017282;28;20107;-82
2021/12/30 03:28:16;;;;;;;100.15;12.65;;;9.40;99.90;;;;;;5033237;28;20489;-81
2021/12/30 03:30:43;;;;;;;83.72;12.68;;;9.40;99.90;;;;;;5033773;28;20056;-82
2021/12/30 03:33:09;;;;;;;113.57;15.77;;;9.30;99.90;;;;;;5033481;28;20049;-82
2021/12/30 03:35:34;;;;;;;89.43;16.42;;;9.40;99.90;;;;;;5016942;28;20083;-82
2021/12/30 03:38:01;;;;;;;98.13;16.38;;;9.50;99.90;;;;;;5033359;28;20046;-82
2021/12/30 03:40:26;;;;;;;98.22;15.88;;;9.50;99.90;;;;;;5016819;28;20397;-82
2021/12/30 03:42:52;;;;;;;112.38;20.50;;;9.50;99.90;;;;;;5050312;28;20053;-82
2021/12/30 03:45:18;;;;;;;104.88;18.73;;;9.50;99.90;;;;;;5033383;28;20071;-81
2021/12/30 03:47:46;;;;;;;101.70;18.20;;;9.50;99.90;;;;;;5033353;28;20045;-82
2021/12/30 03:50:19;;;;;;;133.95;20.55;;;9.40;99.90;;;;;;5016843;28;20048;-81
2021/12/30 03:52:48;;;;;;;107.97;20.10;;;9.50;99.90;;;;;;5033896;28;20436;-81
2021/12/30 03:55:14;;;;;;;116.50;21.08;;;9.60;99.90;;;;;;5032659;28;20482;-81
2021/12/30 03:57:40;;;;;;;110.00;20.10;;;9.60;99.90;;;;;;5032995;28;20049;-82
2021/12/30 04:00:06;;;;;;;131.65;20.48;;;9.50;99.90;;;;;;5033162;28;20056;-82
2021/12/30 04:02:32;;;;;;;127.45;20.10;;;9.60;99.90;;;;;;5032981;28;20045;-82
2021/12/30 04:04:58;;;;;;;137.20;20.13;;;9.60;99.90;;;;;;5016612;28;20053;-82
2021/12/30 04:07:23;;;;;;;130.35;19.98;;;9.60;99.90;;;;;;5033524;28;20049;-82
2021/12/30 04:09:49;;;;;;;101.80;18.13;;;9.70;99.90;;;;;;5032326;28;20049;-82
2021/12/30 04:12:15;;;;;;;107.03;17.98;;;9.70;99.90;;;;;;5032901;28;20475;-82
2021/12/30 04:14:41;;;;;;;125.47;19.95;;;9.70;99.90;;;;;;5033336;28;20389;-82
2021/12/30 04:17:06;;;;;;;125.03;19.92;;;9.70;99.90;;;;;;5032412;28;20072;-82
2021/12/30 04:19:32;;;;;;;113.63;20.05;;;9.80;99.90;;;;;;5032880;28;20099;-82
2021/12/30 04:21:58;;;;;;;131.57;22.08;;;9.80;99.90;;;;;;5033142;28;20045;-82
2021/12/30 04:24:24;;;;;;;106.22;17.63;;;9.90;99.90;;;;;;5049770;28;20060;-81
2021/12/30 04:26:50;;;;;;;120.00;18.20;;;9.90;99.90;;;;;;5032848;28;20053;-82
2021/12/30 04:29:18;;;;;;;81.20;15.85;;;10.10;99.90;;;;;;5032911;28;20048;-82
2021/12/30 04:31:44;;;;;;;128.95;20.13;;;10.00;99.90;;;;;;5016193;28;20045;-82
2021/12/30 04:34:10;;;;;;;133.73;18.95;;;10.10;99.90;;;;;;5032642;28;20056;-82
2021/12/30 04:36:36;;;;;;;128.18;20.42;;;10.10;99.90;;;;;;5016028;28;20554;-82
2021/12/30 04:39:03;;;;;;;126.93;20.60;;;10.10;99.90;;;;;;5032374;28;20106;-82
2021/12/30 04:41:29;;;;;;;150.27;22.38;;;10.20;99.90;;;;;;5015843;28;20089;-82
2021/12/30 04:43:54;;;;;;;136.10;20.40;;;10.10;99.90;;;;;;5049138;28;20544;-82
2021/12/30 04:46:20;;;;;;;123.90;19.38;;;10.10;99.90;;;;;;5033079;28;20041;-81
2021/12/30 04:48:47;;;;;;;129.88;19.88;;;10.10;99.90;;;;;;5032584;28;20049;-82
2021/12/30 04:51:13;;;;;;;110.95;17.67;;;10.10;99.90;;;;;;5032523;28;20041;-81
2021/12/30 04:53:39;;;;;;;124.28;19.90;;;10.10;99.90;;;;;;5032520;28;20045;-81
2021/12/30 04:56:05;;;;;;;125.78;20.40;;;10.20;99.90;;;;;;5032404;28;20413;-82
2021/12/30 04:58:30;;;;;;;113.60;19.30;;;10.20;99.90;;;;;;5048767;28;20136;-81
2021/12/30 05:00:56;;;;;;;122.32;19.38;;;10.10;99.90;;;;;;5016342;28;20091;-82
2021/12/30 05:03:22;;;;;;;107.80;19.70;;;10.20;99.90;;;;;;5049152;28;20381;-82
2021/12/30 05:05:51;;;;;;;116.38;18.98;;;10.30;99.90;;;;;;5016010;28;20088;-82
2021/12/30 05:08:19;;;;;;;105.32;18.05;;;10.30;99.90;;;;;;5032409;28;20141;-81
2021/12/30 05:10:46;;;;;;;127.50;20.85;;;10.40;99.90;;;;;;5031931;28;20050;-82
2021/12/30 05:13:12;;;;;;;118.57;21.98;;;10.50;99.90;;;;;;5016112;28;20481;-81
2021/12/30 05:15:39;;;;;;;131.13;22.08;;;10.60;99.90;;;;;;5015796;28;20484;-81
2021/12/30 05:18:08;;;;;;;108.50;19.02;;;10.70;99.90;;;;;;5031662;28;20050;-82
2021/12/30 05:20:34;;;;;;;148.38;22.17;;;10.70;99.90;;;;;;5031813;28;20128;-82
2021/12/30 05:22:59;;;;;;;155.93;25.30;;;10.80;99.90;;;;;;5018757;28;20045;-81
2021/12/30 05:25:27;;;;;;;136.20;24.77;;;10.90;99.90;;;;;;5036208;28;20053;-82
2021/12/30 05:27:53;;;;;;;172.07;28.25;;;10.80;99.90;;;;;;5019410;28;20596;-82
2021/12/30 05:30:21;;;;;;;144.52;26.52;;;10.90;99.90;;;;;;5035744;28;20054;-82
2021/12/30 05:32:49;;;;;;;154.07;30.05;;;10.90;99.90;;;;;;5052595;28;20127;-82
2021/12/30 05:35:15;;;;;;;161.07;30.40;;;11.00;99.90;;;;;;5034743;28;20053;-83
2021/12/30 05:37:41;;;;;;;134.35;26.60;;;11.10;99.90;;;;;;5067655;28;20045;-82
2021/12/30 05:40:10;;;;;;;100.25;23.83;;;11.10;99.90;;;;;;5018218;28;20127;-82
2021/12/30 05:42:37;;;;;;;103.78;26.05;;;11.10;99.90;;;;;;5035037;28;20119;-82
2021/12/30 05:45:04;;;;;;;164.88;29.35;;;11.10;99.90;;;;;;5002958;28;20042;-82
2021/12/30 05:47:30;;;;;;;156.82;30.80;;;11.10;99.90;;;;;;5035681;28;20475;-82
2021/12/30 05:49:55;;;;;;;174.40;28.85;;;11.30;99.90;;;;;;5019318;28;20092;-81
2021/12/30 05:52:21;;;;;;;136.15;27.27;;;11.30;99.90;;;;;;5035696;28;20045;-81
2021/12/30 05:54:48;;;;;;;115.55;25.13;;;11.30;99.90;;;;;;5018570;28;20127;-82
2021/12/30 05:57:14;;;;;;;165.32;28.38;;;11.20;99.90;;;;;;5035229;28;20084;-82
2021/12/30 05:59:39;;;;;;;193.13;29.33;;;11.40;99.90;;;;;;5035534;28;20099;-82
2021/12/30 06:02:05;;;;;;;149.60;25.63;;;11.40;99.90;;;;;;5035370;28;20049;-82
2021/12/30 06:04:31;;;;;;;106.07;22.40;;;11.40;99.90;;;;;;5035573;28;20392;-82
2021/12/30 06:06:56;;;;;;;122.53;23.00;;;11.40;99.90;;;;;;5018680;28;20449;-81
2021/12/30 06:09:25;;;;;;;117.90;21.67;;;11.40;99.90;;;;;;5035255;28;20373;-82
2021/12/30 06:11:51;;;;;;;75.45;18.83;;;11.40;99.90;;;;;;5034947;28;20053;-82
2021/12/30 06:14:17;;;;;;;68.95;17.77;;;11.40;99.90;;;;;;5035561;28;20049;-81
2021/12/30 06:16:42;;;;;;;90.35;19.33;;;11.40;99.90;;;;;;5018546;28;20045;-82
2021/12/30 06:19:08;;;;;;;74.13;18.52;;;11.40;99.90;;;;;;5018551;28;20056;-82
2021/12/30 06:21:34;;;;;;;79.40;18.35;;;11.50;99.90;;;;;;5018582;28;20044;-81
2021/12/30 06:23:59;;;;;;;75.50;17.08;;;11.60;99.90;;;;;;5051553;28;20132;-82
2021/12/30 06:26:25;;;;;;;65.40;16.80;;;11.50;99.90;;;;;;5034938;28;20053;-82
2021/12/30 06:28:51;;;;;;;94.90;19.63;;;11.50;99.90;;;;;;5034964;28;20477;-82
2021/12/30 06:31:17;;;;;;;123.57;19.90;;;11.60;99.90;;;;;;5034985;28;20045;-82
2021/12/30 06:33:43;;;;;;;81.32;18.65;;;11.60;99.90;;;;;;5018148;28;20554;-82
2021/12/30 06:36:09;;;;;;;104.20;20.75;;;11.70;99.90;;;;;;5018201;28;20103;-82
2021/12/30 06:38:35;;;;;;;83.65;19.33;;;11.70;99.90;;;;;;5034707;28;20053;-82
2021/12/30 06:41:01;;;;;;;66.63;17.98;;;11.60;99.90;;;;;;5034404;28;20123;-81
2021/12/30 06:43:27;;;;;;;79.70;18.58;;;11.60;99.90;;;;;;5034369;28;20049;-81
2021/12/30 06:45:53;;;;;;;180.88;25.33;;;11.70;99.90;;;;;;5034226;28;20095;-82
2021/12/30 06:48:18;;;;;;;173.75;25.95;;;11.70;99.90;;;;;;5017991;28;20099;-82
2021/12/30 06:50:54;;;;;;;167.15;24.65;;;11.70;99.90;;;;;;5034461;28;20136;-82
2021/12/30 06:53:23;;;;;;;201.52;26.50;;;11.70;99.90;;;;;;5018225;28;20080;-82
2021/12/30 06:55:52;;;;;;;119.63;23.67;;;11.70;99.90;;;;;;5034024;28;20050;-81
2021/12/30 06:58:18;;;;;;;235.43;28.23;;;11.70;99.90;;;;;;5034193;28;20108;-82
2021/12/30 07:00:44;;;;;;;120.15;22.23;;;11.80;99.90;;;;;;5034239;28;20056;-82
2021/12/30 07:03:10;;;;;;;118.85;21.05;;;11.80;99.90;;;;;;5034157;28;20477;-82
2021/12/30 07:05:36;;;;;;;188.65;24.63;;;11.90;99.90;;;;;;5033956;28;20049;-82
2021/12/30 07:08:02;;;;;;;171.23;25.08;;;11.90;99.90;;;;;;5034369;28;20053;-82
2021/12/30 07:10:28;;;;;;;190.38;26.23;;;12.00;99.90;;;;;;5017352;28;20056;-82
2021/12/30 07:12:54;;;;;;;218.32;27.88;;;12.00;99.90;;;;;;5033975;28;20041;-82
2021/12/30 07:15:20;;;;;;;190.05;26.75;;;12.00;99.90;;;;;;5033925;28;20052;-82
2021/12/30 07:17:47;;;;;;;143.82;23.77;;;12.00;99.90;;;;;;5033684;28;20469;-81
2021/12/30 07:20:13;;;;;;;143.50;22.67;;;12.00;99.90;;;;;;5033848;28;20041;-82
2021/12/30 07:22:39;;;;;;;114.50;21.08;;;12.00;99.90;;;;;;5033963;28;20060;-82
2021/12/30 07:25:06;;;;;;;139.35;23.13;;;12.00;99.90;;;;;;5034123;28;20124;-81
2021/12/30 07:27:32;;;;;;;117.38;22.23;;;12.00;99.90;;;;;;5033566;28;20053;-82
2021/12/30 07:29:59;;;;;;;176.27;23.45;;;12.00;99.90;;;;;;5033722;28;20448;-82
2021/12/30 07:32:25;;;;;;;134.40;21.42;;;12.00;99.90;;;;;;5033784;28;20196;-82
2021/12/30 07:34:51;;;;;;;113.05;19.63;;;12.10;99.90;;;;;;5017227;28;20099;-82
2021/12/30 07:37:17;;;;;;;113.75;18.33;;;12.10;99.90;;;;;;5033369;28;20045;-81
2021/12/30 07:39:45;;;;;;;106.70;19.10;;;12.10;99.90;;;;;;5050468;28;20107;-82
2021/12/30 07:42:12;;;;;;;96.93;18.70;;;12.10;99.90;;;;;;5033069;28;20041;-82
2021/12/30 07:44:38;;;;;;;98.00;17.45;;;12.20;99.90;;;;;;5049620;28;20095;-80
2021/12/30 07:47:06;;;;;;;90.00;17.15;;;12.20;99.90;;;;;;5033672;28;20045;-82
2021/12/30 07:49:32;;;;;;;114.57;17.58;;;12.20;99.90;;;;;;5016870;28;20052;-83
2021/12/30 07:51:59;;;;;;;41.60;12.65;;;12.20;99.90;;;;;;5033326;28;20095;-86
2021/12/30 07:54:25;;;;;;;84.53;15.80;;;12.20;99.90;;;;;;5033532;28;20057;-79
2021/12/30 07:56:51;;;;;;;53.33;13.57;;;12.20;99.90;;;;;;5033173;28;20041;-80
2021/12/30 07:59:16;;;;;;;46.72;13.75;;;12.20;99.90;;;;;;5016852;28;20045;-80
2021/12/30 08:01:42;;;;;;;37.90;11.93;;;12.20;99.90;;;;;;5032608;28;20064;-78
2021/12/30 08:04:08;;;;;;;44.90;13.15;;;12.20;99.90;;;;;;5017483;28;20085;-77
2021/12/30 08:06:34;;;;;;;44.40;12.52;;;12.30;99.90;;;;;;5033371;28;20527;-77
2021/12/30 08:08:59;;;;;;;31.60;10.63;;;12.30;99.90;;;;;;5032872;28;20045;-77
2021/12/30 08:11:25;;;;;;;25.77;9.50;;;12.30;99.90;;;;;;5032758;28;20067;-77
2021/12/30 08:13:51;;;;;;;32.65;10.05;;;12.30;99.90;;;;;;5032972;28;20079;-77
2021/12/30 08:16:17;;;;;;;28.35;9.05;;;12.30;99.90;;;;;;5033136;28;20104;-78
2021/12/30 08:18:43;;;;;;;19.50;7.07;;;12.30;99.90;;;;;;5032626;28;20037;-78
2021/12/30 08:21:10;;;;;;;15.63;5.97;;;12.30;99.90;;;;;;5033058;28;20056;-77
2021/12/30 08:23:36;;;;;;;19.77;6.47;;;12.30;99.90;;;;;;5016668;28;20053;-78
2021/12/30 08:26:05;;;;;;;13.00;6.00;;;12.40;99.90;;;;;;5032825;28;20132;-77
2021/12/30 08:28:31;;;;;;;18.83;6.65;;;12.40;99.90;;;;;;5032810;28;20060;-78
2021/12/30 08:30:57;;;;;;;18.50;7.68;;;12.40;99.90;;;;;;5016608;28;20050;-77
2021/12/30 08:33:23;;;;;;;18.77;7.10;;;12.40;99.90;;;;;;5032824;28;20160;-78
2021/12/30 08:35:49;;;;;;;14.40;6.38;;;12.40;99.90;;;;;;5033427;28;20049;-77
2021/12/30 08:38:17;;;;;;;18.60;6.40;;;12.40;99.90;;;;;;5016044;28;20519;-77
2021/12/30 08:40:45;;;;;;;19.38;8.55;;;12.40;99.90;;;;;;5032234;28;20046;-77
2021/12/30 08:43:13;;;;;;;16.95;8.15;;;12.40;99.90;;;;;;5032635;28;20049;-77
2021/12/30 08:45:39;;;;;;;19.33;8.85;;;12.40;99.90;;;;;;5032372;28;20041;-77
2021/12/30 08:48:05;;;;;;;26.33;12.48;;;12.40;99.90;;;;;;5032584;28;20057;-78
2021/12/30 08:50:31;;;;;;;29.80;13.65;;;12.40;99.90;;;;;;5032717;28;20053;-77
2021/12/30 08:52:57;;;;;;;33.60;14.93;;;12.40;99.90;;;;;;5032919;28;20389;-75
2021/12/30 08:55:23;;;;;;;37.95;15.82;;;12.40;99.90;;;;;;5035558;28;20046;-76
2021/12/30 08:57:49;;;;;;;35.78;16.15;;;12.40;99.90;;;;;;5044592;28;20056;-76
2021/12/30 09:00:24;;;;;;;47.15;17.90;;;12.40;99.90;;;;;;5036127;28;20493;-74
2021/12/30 09:02:51;;;;;;;41.83;18.67;;;12.40;99.90;;;;;;5020390;28;20060;-74
2021/12/30 09:05:16;;;;;;;39.63;18.60;;;12.30;99.90;;;;;;5036405;28;20607;-74
2021/12/30 09:07:43;;;;;;;43.17;19.35;;;12.40;99.90;;;;;;5036580;28;20141;-74
2021/12/30 09:10:11;;;;;;;52.85;21.35;;;12.30;99.90;;;;;;5036069;28;20124;-74
2021/12/30 09:12:38;;;;;;;56.90;23.15;;;12.30;99.90;;;;;;5036293;28;20385;-74
2021/12/30 09:15:05;;;;;;;48.28;21.20;;;12.30;99.90;;;;;;5053313;28;20475;-74
2021/12/30 09:17:32;;;;;;;57.70;23.90;;;12.30;99.90;;;;;;5027682;28;20057;-75
2021/12/30 09:19:57;;;;;;;53.63;23.30;;;12.40;99.90;;;;;;5067845;28;20050;-74
2021/12/30 09:22:23;;;;;;;44.22;21.80;;;12.30;99.90;;;;;;5052797;28;20045;-75
2021/12/30 09:24:49;;;;;;;49.08;23.35;;;12.30;99.90;;;;;;5035511;28;20049;-74
2021/12/30 09:27:15;;;;;;;53.85;24.92;;;12.30;99.90;;;;;;5035825;28;20053;-74
2021/12/30 09:29:41;;;;;;;45.22;20.55;;;12.30;99.90;;;;;;5035879;28;20050;-73
2021/12/30 09:32:08;;;;;;;49.92;20.88;;;12.30;99.90;;;;;;5034937;28;20049;-74
2021/12/30 09:34:34;;;;;;;50.50;22.38;;;12.30;99.90;;;;;;5052725;28;20136;-75
2021/12/30 09:37:00;;;;;;;49.97;19.45;;;12.30;99.90;;;;;;5053370;28;20469;-76
2021/12/30 09:39:25;;;;;;;39.60;17.48;;;12.30;99.90;;;;;;5035727;28;20080;-76
2021/12/30 09:41:51;;;;;;;39.15;18.33;;;12.30;99.90;;;;;;5036352;28;20060;-76
2021/12/30 09:44:18;;;;;;;43.53;17.88;;;12.30;99.90;;;;;;5035596;28;20388;-77
2021/12/30 09:46:45;;;;;;;37.30;16.95;;;12.40;99.90;;;;;;5035575;28;20520;-75
2021/12/30 09:49:17;;;;;;;35.67;18.38;;;12.40;99.90;;;;;;5035611;28;20042;-72
2021/12/30 09:51:43;;;;;;;37.85;18.33;;;12.30;99.90;;;;;;5036555;28;20160;-73
2021/12/30 09:54:10;;;;;;;53.33;20.70;;;12.40;99.90;;;;;;5035129;28;20175;-73
2021/12/30 09:56:36;;;;;;;37.15;17.92;;;12.40;99.90;;;;;;5035674;28;20060;-74
2021/12/30 09:59:02;;;;;;;52.63;19.08;;;12.40;99.90;;;;;;5018600;28;20041;-75
2021/12/30 10:01:28;;;;;;;54.17;20.73;;;12.40;99.90;;;;;;5035410;28;20137;-75
2021/12/30 10:04:01;;;;;;;53.97;21.15;;;12.50;99.90;;;;;;5035305;28;20470;-74
2021/12/30 10:06:29;;;;;;;46.83;19.30;;;12.50;99.90;;;;;;5035200;28;20154;-75
2021/12/30 10:09:02;;;;;;;48.38;21.15;;;12.50;99.90;;;;;;5034652;28;20049;-75
2021/12/30 10:11:28;;;;;;;60.47;22.92;;;12.50;99.90;;;;;;5034745;28;20042;-75
2021/12/30 10:13:57;;;;;;;61.75;22.65;;;12.50;99.90;;;;;;5035093;28;20075;-74
2021/12/30 10:16:24;;;;;;;55.35;21.83;;;12.50;99.90;;;;;;5051492;28;20049;-73
2021/12/30 10:18:53;;;;;;;71.88;23.40;;;12.50;99.90;;;;;;5034683;28;20080;-75
2021/12/30 10:21:30;;;;;;;68.30;23.55;;;12.50;99.90;;;;;;5037033;28;20054;-76
2021/12/30 10:24:01;;;;;;;54.28;21.58;;;12.50;99.90;;;;;;5035180;28;20392;-77
2021/12/30 10:26:27;;;;;;;87.18;26.73;;;12.40;99.90;;;;;;5034827;28;20111;-77
2021/12/30 10:28:59;;;;;;;61.20;20.60;;;12.50;99.90;;;;;;5034805;28;20124;-77
2021/12/30 10:31:28;;;;;;;60.63;23.17;;;12.50;99.90;;;;;;5034688;28;20053;-77
2021/12/30 10:34:00;;;;;;;63.90;20.58;;;12.50;99.90;;;;;;5034708;28;20049;-77
2021/12/30 10:36:48;;;;;;;67.68;22.13;;;12.40;99.90;;;;;;5034240;28;20049;-77
2021/12/30 10:39:27;;;;;;;51.70;19.42;;;12.50;99.90;;;;;;5034896;28;20052;-73
2021/12/30 10:42:06;;;;;;;64.15;20.20;;;12.40;99.90;;;;;;5034248;28;20057;-73
2021/12/30 10:44:57;;;;;;;53.38;18.13;;;12.40;99.90;;;;;;5035290;28;20374;-72
2021/12/30 10:47:26;;;;;;;46.65;17.38;;;12.40;99.90;;;;;;5034543;28;20473;-73
2021/12/30 10:50:05;;;;;;;53.40;18.98;;;12.40;99.90;;;;;;5034471;28;20080;-73
2021/12/30 10:52:32;;;;;;;60.15;18.98;;;12.30;99.90;;;;;;5034403;28;20501;-74
2021/12/30 10:55:00;;;;;;;69.07;21.75;;;12.30;99.90;;;;;;5034067;28;20058;-73
2021/12/30 10:57:30;;;;;;;74.00;21.95;;;12.30;99.90;;;;;;5034090;28;20049;-74
2021/12/30 10:59:56;;;;;;;59.30;17.13;;;12.40;99.90;;;;;;5034400;28;20076;-74
2021/12/30 11:02:24;;;;;;;56.15;20.05;;;12.40;99.90;;;;;;5034013;28;20049;-74
2021/12/30 11:04:53;;;;;;;57.22;18.85;;;12.40;99.90;;;;;;5034126;28;20481;-76
2021/12/30 11:07:22;;;;;;;75.78;20.60;;;12.40;99.90;;;;;;5017530;28;20058;-76
2021/12/30 11:09:50;;;;;;;62.88;19.38;;;12.30;99.90;;;;;;5034036;28;20053;-76
2021/12/30 11:12:26;;;;;;;58.63;17.48;;;12.30;99.90;;;;;;5025845;28;20457;-74
2021/12/30 11:14:53;;;;;;;60.33;18.02;;;12.40;99.90;;;;;;5014453;28;20050;-73
2021/12/30 11:17:22;;;;;;;59.83;17.40;;;12.40;99.90;;;;;;5030206;28;20053;-78
2021/12/30 11:19:55;;;;;;;63.88;17.67;;;12.40;99.90;;;;;;5013150;28;20049;-75
2021/12/30 11:22:23;;;;;;;74.90;19.30;;;12.40;99.90;;;;;;5015984;28;20076;-76
2021/12/30 11:24:54;;;;;;;59.97;16.73;;;12.40;99.90;;;;;;4998092;28;20088;-75
2021/12/30 11:27:21;;;;;;;71.18;18.85;;;12.40;99.90;;;;;;5031920;28;20060;-75
2021/12/30 11:29:51;;;;;;;85.43;17.73;;;12.40;99.90;;;;;;5057263;28;20489;-74
2021/12/30 11:32:20;;;;;;;77.00;16.83;;;12.40;99.90;;;;;;5028598;28;20069;-76
2021/12/30 11:34:48;;;;;;;79.68;19.35;;;12.40;99.90;;;;;;5033114;28;20139;-77
2021/12/30 11:37:15;;;;;;;82.97;19.15;;;12.40;99.90;;;;;;5033254;28;20037;-76
2021/12/30 11:39:44;;;;;;;67.55;17.08;;;12.30;99.90;;;;;;5033325;28;20476;-76
2021/12/30 11:42:17;;;;;;;88.05;18.77;;;12.30;99.90;;;;;;5031720;28;20397;-77
2021/12/30 11:44:47;;;;;;;83.57;18.27;;;12.30;99.90;;;;;;5032893;28;20051;-77
2021/12/30 11:47:36;;;;;;;84.95;18.65;;;12.30;99.90;;;;;;5011726;28;20129;-76
2021/12/30 11:50:13;;;;;;;72.65;18.55;;;12.40;99.90;;;;;;5008703;28;20093;-77
2021/12/30 11:52:56;;;;;;;75.00;17.55;;;12.40;99.90;;;;;;5031623;28;20103;-77
2021/12/30 11:55:50;;;;;;;80.18;16.52;;;12.40;99.90;;;;;;5032729;28;20057;-76
2021/12/30 11:58:28;;;;;;;66.85;15.50;;;12.30;99.90;;;;;;5030839;28;20045;-75
2021/12/30 12:01:16;;;;;;;83.30;17.55;;;12.30;99.90;;;;;;5029092;28;20061;-77
2021/12/30 12:03:54;;;;;;;64.65;13.60;;;12.30;99.90;;;;;;5042494;28;20590;-75
2021/12/30 12:06:31;;;;;;;71.55;12.43;;;12.30;99.90;;;;;;5032629;28;20042;-75
2021/12/30 12:09:08;;;;;;;;;;;12.30;99.90;;;;;;5050480;28;20102;-76
2021/12/30 12:11:44;;;;;;;58.40;12.95;;;12.40;99.90;;;;;;5028069;28;19971;-76
2021/12/30 12:14:24;;;;;;;;;;;12.40;99.90;;;;;;5033137;28;20052;-75
2021/12/30 12:17:08;;;;;;;71.03;13.15;;;12.40;99.90;;;;;;5047502;28;20326;-76
2021/12/30 12:19:39;;;;;;;72.30;12.65;;;12.40;99.90;;;;;;5032694;28;20049;-76
2021/12/30 12:22:08;;;;;;;78.80;11.85;;;12.40;99.90;;;;;;5015992;28;20049;-77
2021/12/30 12:24:45;;;;;;;71.60;12.38;;;12.40;99.90;;;;;;5013200;28;20489;-76
2021/12/30 12:27:20;;;;;;;62.15;11.85;;;12.40;99.90;;;;;;5061470;28;20052;-76
2021/12/30 12:29:48;;;;;;;67.15;11.82;;;12.40;99.90;;;;;;5019905;28;20045;-76
2021/12/30 12:32:17;;;;;;;60.85;10.75;;;12.50;99.90;;;;;;5032118;28;20081;-75
2021/12/30 12:34:46;;;;;;;63.80;12.55;;;12.40;99.90;;;;;;5036308;28;20128;-75